sensor_id;sensor_type;location;lat;lon;timestamp;pressure;altitude;pressure_sealevel;temperature;humidity
80749;BME280;70145;53.746;9.970;2024-03-02T00:01:50;100192.78;;;7.57;56.81
80749;BME280;70145;53.746;9.970;2024-03-02T00:04:16;100191.94;;;7.57;56.67
80749;BME280;70145;53.746;9.970;2024-03-02T00:06:42;100190.25;;;7.56;56.46
80749;BME280;70145;53.746;9.970;2024-03-02T00:09:08;100197.41;;;7.55;56.79
80749;BME280;70145;53.746;9.970;2024-03-02T00:11:35;100195.59;;;7.56;56.93
80749;BME280;70145;53.746;9.970;2024-03-02T00:14:01;100187.69;;;7.54;56.64
80749;BME280;70145;53.746;9.970;2024-03-02T00:16:30;100182.31;;;7.54;56.64
80749;BME280;70145;53.746;9.970;2024-03-02T00:18:56;100183.31;;;7.53;56.57
80749;BME280;70145;53.746;9.970;2024-03-02T00:21:26;100182.56;;;7.51;57.13
80749;BME280;70145;53.746;9.970;2024-03-02T00:23:52;100194.50;;;7.47;56.86
80749;BME280;70145;53.746;9.970;2024-03-02T00:26:18;100183.78;;;7.47;57.08
80749;BME280;70145;53.746;9.970;2024-03-02T00:28:44;100182.94;;;7.47;56.69
80749;BME280;70145;53.746;9.970;2024-03-02T00:31:13;100179.41;;;7.46;56.98
80749;BME280;70145;53.746;9.970;2024-03-02T00:33:46;100172.34;;;7.45;57.17
80749;BME280;70145;53.746;9.970;2024-03-02T00:36:13;100174.19;;;7.45;57.03
80749;BME280;70145;53.746;9.970;2024-03-02T00:38:49;100169.78;;;7.44;57.16
80749;BME280;70145;53.746;9.970;2024-03-02T00:41:22;100169.78;;;7.44;57.06
80749;BME280;70145;53.746;9.970;2024-03-02T00:44:07;100167.22;;;7.42;57.09
80749;BME280;70145;53.746;9.970;2024-03-02T00:46:35;100170.03;;;7.41;57.03
80749;BME280;70145;53.746;9.970;2024-03-02T00:51:36;100179.91;;;7.40;57.26
80749;BME280;70145;53.746;9.970;2024-03-02T00:54:04;100169.19;;;7.40;57.09
80749;BME280;70145;53.746;9.970;2024-03-02T00:56:30;100164.78;;;7.39;57.30
80749;BME280;70145;53.746;9.970;2024-03-02T00:58:56;100155.81;;;7.40;57.38
80749;BME280;70145;53.746;9.970;2024-03-02T01:01:22;100159.44;;;7.39;57.19
80749;BME280;70145;53.746;9.970;2024-03-02T01:03:48;100167.47;;;7.39;57.38
80749;BME280;70145;53.746;9.970;2024-03-02T01:06:14;100162.97;;;7.40;57.45
80749;BME280;70145;53.746;9.970;2024-03-02T01:08:40;100158.59;;;7.39;57.28
80749;BME280;70145;53.746;9.970;2024-03-02T01:11:05;100160.41;;;7.38;57.25
80749;BME280;70145;53.746;9.970;2024-03-02T01:13:31;100173.81;;;7.38;57.11
80749;BME280;70145;53.746;9.970;2024-03-02T01:15:56;100171.13;;;7.38;57.52
80749;BME280;70145;53.746;9.970;2024-03-02T01:18:22;100179.41;;;7.35;57.47
80749;BME280;70145;53.746;9.970;2024-03-02T01:20:48;100171.38;;;7.35;57.65
80749;BME280;70145;53.746;9.970;2024-03-02T01:23:16;100173.22;;;7.35;57.50
80749;BME280;70145;53.746;9.970;2024-03-02T01:25:41;100180.41;;;7.34;57.60
80749;BME280;70145;53.746;9.970;2024-03-02T01:28:07;100174.31;;;7.32;57.44
80749;BME280;70145;53.746;9.970;2024-03-02T01:30:32;100176.16;;;7.32;57.54
80749;BME280;70145;53.746;9.970;2024-03-02T01:32:57;100175.28;;;7.31;58.00
80749;BME280;70145;53.746;9.970;2024-03-02T01:35:24;100173.47;;;7.32;57.62
80749;BME280;70145;53.746;9.970;2024-03-02T01:37:49;100170.03;;;7.30;57.65
80749;BME280;70145;53.746;9.970;2024-03-02T01:40:14;100174.41;;;7.31;57.86
80749;BME280;70145;53.746;9.970;2024-03-02T01:42:40;100169.06;;;7.31;57.85
80749;BME280;70145;53.746;9.970;2024-03-02T01:45:06;100170.91;;;7.30;58.08
80749;BME280;70145;53.746;9.970;2024-03-02T01:47:31;100163.81;;;7.29;57.93
80749;BME280;70145;53.746;9.970;2024-03-02T01:49:57;100168.34;;;7.29;57.84
80749;BME280;70145;53.746;9.970;2024-03-02T01:52:23;100163.13;;;7.27;57.93
80749;BME280;70145;53.746;9.970;2024-03-02T01:54:48;100161.38;;;7.26;57.73
80749;BME280;70145;53.746;9.970;2024-03-02T01:57:14;100164.94;;;7.27;57.42
80749;BME280;70145;53.746;9.970;2024-03-02T01:59:39;100162.38;;;7.25;57.74
80749;BME280;70145;53.746;9.970;2024-03-02T02:02:04;100163.38;;;7.24;57.95
80749;BME280;70145;53.746;9.970;2024-03-02T02:04:30;100158.97;;;7.23;58.05
80749;BME280;70145;53.746;9.970;2024-03-02T02:06:56;100161.63;;;7.23;57.83
80749;BME280;70145;53.746;9.970;2024-03-02T02:09:21;100149.34;;;7.21;58.01
80749;BME280;70145;53.746;9.970;2024-03-02T02:11:47;100151.19;;;7.20;58.01
80749;BME280;70145;53.746;9.970;2024-03-02T02:14:12;100151.19;;;7.20;57.91
80749;BME280;70145;53.746;9.970;2024-03-02T02:16:37;100151.31;;;7.19;57.85
80749;BME280;70145;53.746;9.970;2024-03-02T02:19:02;100144.34;;;7.16;58.35
80749;BME280;70145;53.746;9.970;2024-03-02T02:21:28;100148.88;;;7.16;58.02
80749;BME280;70145;53.746;9.970;2024-03-02T02:23:53;100139.00;;;7.16;58.31
80749;BME280;70145;53.746;9.970;2024-03-02T02:26:19;100142.66;;;7.15;58.05
80749;BME280;70145;53.746;9.970;2024-03-02T02:28:44;100138.28;;;7.14;58.36
80749;BME280;70145;53.746;9.970;2024-03-02T02:31:14;100131.94;;;7.15;58.05
80749;BME280;70145;53.746;9.970;2024-03-02T02:33:40;100133.75;;;7.15;58.08
80749;BME280;70145;53.746;9.970;2024-03-02T02:36:06;100130.38;;;7.13;58.08
80749;BME280;70145;53.746;9.970;2024-03-02T02:38:37;100132.19;;;7.12;58.32
80749;BME280;70145;53.746;9.970;2024-03-02T02:41:03;100126.09;;;7.10;58.17
80749;BME280;70145;53.746;9.970;2024-03-02T02:43:29;100119.91;;;7.10;58.39
80749;BME280;70145;53.746;9.970;2024-03-02T02:45:54;100125.38;;;7.08;58.50
80749;BME280;70145;53.746;9.970;2024-03-02T02:48:19;100131.72;;;7.07;58.89
80749;BME280;70145;53.746;9.970;2024-03-02T02:50:45;100125.63;;;7.05;58.56
80749;BME280;70145;53.746;9.970;2024-03-02T02:53:10;100122.22;;;7.03;58.53
80749;BME280;70145;53.746;9.970;2024-03-02T02:55:35;100117.97;;;7.01;58.81
80749;BME280;70145;53.746;9.970;2024-03-02T02:58:08;100119.91;;;6.99;58.69
80749;BME280;70145;53.746;9.970;2024-03-02T03:00:33;100127.94;;;6.99;58.92
80749;BME280;70145;53.746;9.970;2024-03-02T03:02:58;100112.81;;;6.98;58.78
80749;BME280;70145;53.746;9.970;2024-03-02T03:05:24;100113.91;;;6.95;58.92
80749;BME280;70145;53.746;9.970;2024-03-02T03:07:49;100119.28;;;6.95;58.89
80749;BME280;70145;53.746;9.970;2024-03-02T03:10:15;100115.84;;;6.93;58.73
80749;BME280;70145;53.746;9.970;2024-03-02T03:12:41;100122.19;;;6.92;58.94
80749;BME280;70145;53.746;9.970;2024-03-02T03:15:08;100120.38;;;6.93;58.66
80749;BME280;70145;53.746;9.970;2024-03-02T03:17:33;100113.28;;;6.92;58.97
80749;BME280;70145;53.746;9.970;2024-03-02T03:20:00;100117.69;;;6.93;58.78
80749;BME280;70145;53.746;9.970;2024-03-02T03:22:26;100117.69;;;6.93;58.88
80749;BME280;70145;53.746;9.970;2024-03-02T03:24:51;100119.50;;;6.92;58.82
80749;BME280;70145;53.746;9.970;2024-03-02T03:27:16;100128.41;;;6.93;58.87
80749;BME280;70145;53.746;9.970;2024-03-02T03:29:41;100124.88;;;6.92;58.82
80749;BME280;70145;53.746;9.970;2024-03-02T03:32:07;100124.00;;;6.92;58.94
80749;BME280;70145;53.746;9.970;2024-03-02T03:34:33;100108.69;;;6.94;58.90
80749;BME280;70145;53.746;9.970;2024-03-02T03:36:59;100112.47;;;6.91;58.62
80749;BME280;70145;53.746;9.970;2024-03-02T03:39:24;100124.13;;;6.90;59.30
80749;BME280;70145;53.746;9.970;2024-03-02T03:41:49;100121.44;;;6.90;58.87
80749;BME280;70145;53.746;9.970;2024-03-02T03:44:14;100125.97;;;6.90;58.96
80749;BME280;70145;53.746;9.970;2024-03-02T03:46:40;100121.44;;;6.90;59.07
80749;BME280;70145;53.746;9.970;2024-03-02T03:49:05;100117.81;;;6.91;58.67
80749;BME280;70145;53.746;9.970;2024-03-02T03:51:30;100114.28;;;6.91;59.18
80749;BME280;70145;53.746;9.970;2024-03-02T03:53:56;100107.47;;;6.87;59.06
80749;BME280;70145;53.746;9.970;2024-03-02T03:56:21;100111.97;;;6.86;59.07
80749;BME280;70145;53.746;9.970;2024-03-02T03:58:47;100112.94;;;6.85;59.40
80749;BME280;70145;53.746;9.970;2024-03-02T04:01:12;100105.03;;;6.84;59.18
80749;BME280;70145;53.746;9.970;2024-03-02T04:03:38;100105.16;;;6.82;59.08
80749;BME280;70145;53.746;9.970;2024-03-02T04:06:03;100099.81;;;6.82;59.20
80749;BME280;70145;53.746;9.970;2024-03-02T04:08:29;100104.28;;;6.82;59.21
80749;BME280;70145;53.746;9.970;2024-03-02T04:10:54;100106.25;;;6.80;58.87
80749;BME280;70145;53.746;9.970;2024-03-02T04:13:19;100101.63;;;6.82;59.11
80749;BME280;70145;53.746;9.970;2024-03-02T04:15:45;100100.03;;;6.79;59.65
80749;BME280;70145;53.746;9.970;2024-03-02T04:18:10;100095.03;;;6.75;59.53
80749;BME280;70145;53.746;9.970;2024-03-02T04:20:36;100092.25;;;6.76;59.43
80749;BME280;70145;53.746;9.970;2024-03-02T04:23:02;100089.69;;;6.75;59.38
80749;BME280;70145;53.746;9.970;2024-03-02T04:25:27;100095.16;;;6.73;59.50
80749;BME280;70145;53.746;9.970;2024-03-02T04:27:52;100100.03;;;6.68;59.44
80749;BME280;70145;53.746;9.970;2024-03-02T04:30:18;100100.75;;;6.70;59.54
80749;BME280;70145;53.746;9.970;2024-03-02T04:32:43;100107.09;;;6.69;59.67
80749;BME280;70145;53.746;9.970;2024-03-02T04:35:11;100107.09;;;6.69;59.49
80749;BME280;70145;53.746;9.970;2024-03-02T04:37:37;100112.56;;;6.68;59.52
80749;BME280;70145;53.746;9.970;2024-03-02T04:40:03;100118.63;;;6.70;59.36
80749;BME280;70145;53.746;9.970;2024-03-02T04:42:28;100110.75;;;6.68;59.67
80749;BME280;70145;53.746;9.970;2024-03-02T04:44:53;100113.44;;;6.68;59.34
80749;BME280;70145;53.746;9.970;2024-03-02T04:47:18;100118.78;;;6.68;59.51
80749;BME280;70145;53.746;9.970;2024-03-02T04:49:44;100115.94;;;6.70;59.38
80749;BME280;70145;53.746;9.970;2024-03-02T04:52:09;100128.38;;;6.71;59.40
80749;BME280;70145;53.746;9.970;2024-03-02T04:54:34;100116.69;;;6.72;59.42
80749;BME280;70145;53.746;9.970;2024-03-02T04:57:20;100120.47;;;6.69;59.49
80749;BME280;70145;53.746;9.970;2024-03-02T04:59:45;100124.97;;;6.69;59.24
80749;BME280;70145;53.746;9.970;2024-03-02T05:02:10;100126.81;;;6.68;59.67
80749;BME280;70145;53.746;9.970;2024-03-02T05:04:35;100119.72;;;6.67;59.32
80749;BME280;70145;53.746;9.970;2024-03-02T05:07:01;100124.25;;;6.67;59.91
80749;BME280;70145;53.746;9.970;2024-03-02T05:09:26;100116.09;;;6.68;59.06
80749;BME280;70145;53.746;9.970;2024-03-02T05:11:51;100114.50;;;6.66;59.42
80749;BME280;70145;53.746;9.970;2024-03-02T05:14:36;100119.00;;;6.65;59.20
80749;BME280;70145;53.746;9.970;2024-03-02T05:17:02;100106.47;;;6.66;59.39
80749;BME280;70145;53.746;9.970;2024-03-02T05:19:27;100111.00;;;6.65;59.42
80749;BME280;70145;53.746;9.970;2024-03-02T05:21:53;100118.03;;;6.66;59.47
80749;BME280;70145;53.746;9.970;2024-03-02T05:24:18;100114.50;;;6.66;59.35
80749;BME280;70145;53.746;9.970;2024-03-02T05:26:44;100108.44;;;6.64;59.36
80749;BME280;70145;53.746;9.970;2024-03-02T05:29:09;100111.94;;;6.64;59.13
80749;BME280;70145;53.746;9.970;2024-03-02T05:31:34;100113.66;;;6.65;59.09
80749;BME280;70145;53.746;9.970;2024-03-02T05:33:59;100124.25;;;6.67;59.17
80749;BME280;70145;53.746;9.970;2024-03-02T05:36:25;100124.13;;;6.68;59.32
80749;BME280;70145;53.746;9.970;2024-03-02T05:38:50;100125.94;;;6.68;59.14
80749;BME280;70145;53.746;9.970;2024-03-02T05:41:15;100128.50;;;6.69;59.13
80749;BME280;70145;53.746;9.970;2024-03-02T05:43:40;100126.81;;;6.68;59.22
80749;BME280;70145;53.746;9.970;2024-03-02T05:46:06;100128.50;;;6.69;58.94
80749;BME280;70145;53.746;9.970;2024-03-02T05:48:31;100128.50;;;6.69;59.00
80749;BME280;70145;53.746;9.970;2024-03-02T05:50:56;100118.78;;;6.68;59.14
80749;BME280;70145;53.746;9.970;2024-03-02T05:53:22;100119.72;;;6.67;59.01
80749;BME280;70145;53.746;9.970;2024-03-02T05:55:47;100129.59;;;6.67;58.89
80749;BME280;70145;53.746;9.970;2024-03-02T05:58:18;100133.22;;;6.66;58.91
80749;BME280;70145;53.746;9.970;2024-03-02T06:00:49;100119.97;;;6.64;58.91
80749;BME280;70145;53.746;9.970;2024-03-02T06:03:15;100118.50;;;6.60;59.24
80749;BME280;70145;53.746;9.970;2024-03-02T06:05:40;100114.03;;;6.61;59.26
80749;BME280;70145;53.746;9.970;2024-03-02T06:08:06;100118.63;;;6.59;59.03
80749;BME280;70145;53.746;9.970;2024-03-02T06:10:32;100124.97;;;6.58;59.02
80749;BME280;70145;53.746;9.970;2024-03-02T06:12:58;100127.75;;;6.56;59.16
80749;BME280;70145;53.746;9.970;2024-03-02T06:15:24;100128.84;;;6.54;58.88
80749;BME280;70145;53.746;9.970;2024-03-02T06:17:49;100122.63;;;6.53;59.02
80749;BME280;70145;53.746;9.970;2024-03-02T06:20:15;100121.78;;;6.53;58.89
80749;BME280;70145;53.746;9.970;2024-03-02T06:22:40;100128.09;;;6.52;59.38
80749;BME280;70145;53.746;9.970;2024-03-02T06:25:06;100130.16;;;6.48;58.97
80749;BME280;70145;53.746;9.970;2024-03-02T06:27:31;100133.81;;;6.47;58.88
80749;BME280;70145;53.746;9.970;2024-03-02T06:29:56;100141.72;;;6.49;59.21
80749;BME280;70145;53.746;9.970;2024-03-02T06:32:22;100134.66;;;6.48;59.10
80749;BME280;70145;53.746;9.970;2024-03-02T06:34:48;100140.03;;;6.48;59.32
80749;BME280;70145;53.746;9.970;2024-03-02T06:37:13;100126.75;;;6.46;59.16
80749;BME280;70145;53.746;9.970;2024-03-02T06:39:40;100125.03;;;6.45;58.92
80749;BME280;70145;53.746;9.970;2024-03-02T06:42:05;100131.38;;;6.44;59.06
80749;BME280;70145;53.746;9.970;2024-03-02T06:44:30;100132.34;;;6.43;58.96
80749;BME280;70145;53.746;9.970;2024-03-02T06:46:56;100137.69;;;6.43;59.03
80749;BME280;70145;53.746;9.970;2024-03-02T06:49:21;100133.19;;;6.44;58.84
80749;BME280;70145;53.746;9.970;2024-03-02T06:51:47;100139.50;;;6.43;59.30
80749;BME280;70145;53.746;9.970;2024-03-02T06:54:12;100134.38;;;6.40;59.00
80749;BME280;70145;53.746;9.970;2024-03-02T06:56:37;100137.06;;;6.40;59.13
80749;BME280;70145;53.746;9.970;2024-03-02T06:59:04;100138.03;;;6.39;59.10
80749;BME280;70145;53.746;9.970;2024-03-02T07:01:29;100136.22;;;6.39;59.22
80749;BME280;70145;53.746;9.970;2024-03-02T07:03:55;100131.72;;;6.40;59.25
80749;BME280;70145;53.746;9.970;2024-03-02T07:06:20;100122.97;;;6.38;59.09
80749;BME280;70145;53.746;9.970;2024-03-02T07:08:45;100135.50;;;6.37;59.39
80749;BME280;70145;53.746;9.970;2024-03-02T07:11:11;100132.81;;;6.37;59.13
80749;BME280;70145;53.746;9.970;2024-03-02T07:13:36;100138.16;;;6.37;59.22
80749;BME280;70145;53.746;9.970;2024-03-02T07:16:01;100133.16;;;6.33;59.27
80749;BME280;70145;53.746;9.970;2024-03-02T07:18:30;100133.91;;;6.35;59.37
80749;BME280;70145;53.746;9.970;2024-03-02T07:20:59;100149.97;;;6.35;59.72
80749;BME280;70145;53.746;9.970;2024-03-02T07:23:26;100149.09;;;6.34;59.65
80749;BME280;70145;53.746;9.970;2024-03-02T07:25:55;100157.97;;;6.35;59.68
80749;BME280;70145;53.746;9.970;2024-03-02T07:28:25;100166.84;;;6.35;59.32
80749;BME280;70145;53.746;9.970;2024-03-02T07:31:03;100179.16;;;6.38;59.66
80749;BME280;70145;53.746;9.970;2024-03-02T07:33:30;100166.59;;;6.38;59.59
80749;BME280;70145;53.746;9.970;2024-03-02T07:35:55;100163.69;;;6.41;59.63
80749;BME280;70145;53.746;9.970;2024-03-02T07:38:21;100175.84;;;6.45;59.71
80749;BME280;70145;53.746;9.970;2024-03-02T07:40:47;100183.66;;;6.48;59.38
80749;BME280;70145;53.746;9.970;2024-03-02T07:43:15;100178.31;;;6.48;59.62
80749;BME280;70145;53.746;9.970;2024-03-02T07:45:40;100187.06;;;6.50;59.99
80749;BME280;70145;53.746;9.970;2024-03-02T07:48:06;100181.72;;;6.50;59.74
80749;BME280;70145;53.746;9.970;2024-03-02T07:50:31;100179.78;;;6.52;59.79
80749;BME280;70145;53.746;9.970;2024-03-02T07:53:00;100186.84;;;6.53;60.02
80749;BME280;70145;53.746;9.970;2024-03-02T07:55:25;100193.06;;;6.54;59.97
80749;BME280;70145;53.746;9.970;2024-03-02T07:57:50;100190.13;;;6.57;59.86
80749;BME280;70145;53.746;9.970;2024-03-02T08:00:17;100192.78;;;6.57;60.03
80749;BME280;70145;53.746;9.970;2024-03-02T08:02:43;100197.31;;;6.56;60.16
80749;BME280;70145;53.746;9.970;2024-03-02T08:05:08;100195.63;;;6.55;60.04
80749;BME280;70145;53.746;9.970;2024-03-02T08:07:34;100188.06;;;6.60;60.01
80749;BME280;70145;53.746;9.970;2024-03-02T08:09:59;100201.34;;;6.62;60.20
80749;BME280;70145;53.746;9.970;2024-03-02T08:12:25;100200.25;;;6.64;59.86
80749;BME280;70145;53.746;9.970;2024-03-02T08:14:50;100202.19;;;6.62;60.01
80749;BME280;70145;53.746;9.970;2024-03-02T08:17:15;100204.66;;;6.65;60.01
80749;BME280;70145;53.746;9.970;2024-03-02T08:19:41;100214.13;;;6.69;59.83
80749;BME280;70145;53.746;9.970;2024-03-02T08:22:06;100211.34;;;6.71;59.70
80749;BME280;70145;53.746;9.970;2024-03-02T08:24:32;100214.03;;;6.71;60.00
80749;BME280;70145;53.746;9.970;2024-03-02T08:26:59;100208.44;;;6.74;59.82
80749;BME280;70145;53.746;9.970;2024-03-02T08:29:24;100210.25;;;6.73;59.52
80749;BME280;70145;53.746;9.970;2024-03-02T08:31:50;100218.16;;;6.75;60.06
80749;BME280;70145;53.746;9.970;2024-03-02T08:34:15;100225.09;;;6.77;59.80
80749;BME280;70145;53.746;9.970;2024-03-02T08:36:41;100224.03;;;6.80;59.96
80749;BME280;70145;53.746;9.970;2024-03-02T08:39:08;100219.63;;;6.79;59.86
80749;BME280;70145;53.746;9.970;2024-03-02T08:41:46;100223.91;;;6.81;59.71
80749;BME280;70145;53.746;9.970;2024-03-02T08:44:12;100224.63;;;6.83;59.80
80749;BME280;70145;53.746;9.970;2024-03-02T08:46:38;100219.78;;;6.88;59.71
80749;BME280;70145;53.746;9.970;2024-03-02T08:49:04;100232.06;;;6.91;59.96
80749;BME280;70145;53.746;9.970;2024-03-02T08:51:29;100218.56;;;6.92;59.64
80749;BME280;70145;53.746;9.970;2024-03-02T08:53:55;100212.00;;;6.96;59.67
80749;BME280;70145;53.746;9.970;2024-03-02T08:56:20;100213.69;;;6.97;59.56
80749;BME280;70145;53.746;9.970;2024-03-02T08:58:46;100219.91;;;6.98;59.73
80749;BME280;70145;53.746;9.970;2024-03-02T09:01:12;100216.91;;;7.02;59.51
80749;BME280;70145;53.746;9.970;2024-03-02T09:03:37;100231.63;;;7.08;59.74
80749;BME280;70145;53.746;9.970;2024-03-02T09:06:03;100226.16;;;7.09;59.87
80749;BME280;70145;53.746;9.970;2024-03-02T09:08:28;100229.34;;;7.14;59.80
80749;BME280;70145;53.746;9.970;2024-03-02T09:10:55;100228.00;;;7.20;59.82
80749;BME280;70145;53.746;9.970;2024-03-02T09:13:21;100231.16;;;7.25;59.71
80749;BME280;70145;53.746;9.970;2024-03-02T09:15:47;100225.31;;;7.31;59.89
80749;BME280;70145;53.746;9.970;2024-03-02T09:18:12;100223.38;;;7.33;59.80
80749;BME280;70145;53.746;9.970;2024-03-02T09:20:38;100222.91;;;7.39;59.90
80749;BME280;70145;53.746;9.970;2024-03-02T09:23:03;100223.25;;;7.45;60.32
80749;BME280;70145;53.746;9.970;2024-03-02T09:25:29;100221.19;;;7.49;59.91
80749;BME280;70145;53.746;9.970;2024-03-02T09:27:54;100232.16;;;7.46;59.74
80749;BME280;70145;53.746;9.970;2024-03-02T09:30:19;100228.88;;;7.53;59.42
80749;BME280;70145;53.746;9.970;2024-03-02T09:32:45;100236.53;;;7.58;59.88
80749;BME280;70145;53.746;9.970;2024-03-02T09:35:10;100237.13;;;7.61;59.36
80749;BME280;70145;53.746;9.970;2024-03-02T09:37:37;100240.06;;;7.69;59.40
80749;BME280;70145;53.746;9.970;2024-03-02T09:40:05;100235.91;;;7.77;59.24
80749;BME280;70145;53.746;9.970;2024-03-02T09:42:31;100239.03;;;7.82;59.40
80749;BME280;70145;53.746;9.970;2024-03-02T09:44:57;100236.84;;;7.87;59.14
80749;BME280;70145;53.746;9.970;2024-03-02T09:47:22;100232.94;;;7.91;59.21
80749;BME280;70145;53.746;9.970;2024-03-02T09:49:48;100228.78;;;7.98;58.88
80749;BME280;70145;53.746;9.970;2024-03-02T09:52:14;100227.56;;;8.02;58.85
80749;BME280;70145;53.746;9.970;2024-03-02T09:54:40;100218.88;;;8.09;58.62
80749;BME280;70145;53.746;9.970;2024-03-02T09:57:05;100225.84;;;8.12;58.37
80749;BME280;70145;53.746;9.970;2024-03-02T09:59:30;100235.19;;;8.17;58.53
80749;BME280;70145;53.746;9.970;2024-03-02T10:04:25;100230.56;;;8.30;58.96
80749;BME280;70145;53.746;9.970;2024-03-02T10:06:50;100240.06;;;8.34;58.28
80749;BME280;70145;53.746;9.970;2024-03-02T10:09:27;100233.19;;;8.41;58.23
80749;BME280;70145;53.746;9.970;2024-03-02T10:12:03;100234.50;;;8.47;58.25
80749;BME280;70145;53.746;9.970;2024-03-02T10:14:29;100230.47;;;8.52;57.50
80749;BME280;70145;53.746;9.970;2024-03-02T10:17:02;100229.97;;;8.58;57.84
80749;BME280;70145;53.746;9.970;2024-03-02T10:19:27;100238.22;;;8.66;57.70
80749;BME280;70145;53.746;9.970;2024-03-02T10:21:57;100233.03;;;8.74;58.10
80749;BME280;70145;53.746;9.970;2024-03-02T10:24:23;100229.81;;;8.80;57.76
80749;BME280;70145;53.746;9.970;2024-03-02T10:26:49;100227.63;;;8.85;57.34
80749;BME280;70145;53.746;9.970;2024-03-02T10:29:15;100229.78;;;8.91;57.02
80749;BME280;70145;53.746;9.970;2024-03-02T10:31:42;100226.56;;;8.97;57.13
80749;BME280;70145;53.746;9.970;2024-03-02T10:34:09;100228.56;;;9.05;57.23
80749;BME280;70145;53.746;9.970;2024-03-02T10:36:35;100222.41;;;9.14;57.04
80749;BME280;70145;53.746;9.970;2024-03-02T10:39:02;100225.56;;;9.19;56.99
80749;BME280;70145;53.746;9.970;2024-03-02T10:41:34;100225.72;;;9.27;56.79
80749;BME280;70145;53.746;9.970;2024-03-02T10:44:02;100228.28;;;9.28;55.97
80749;BME280;70145;53.746;9.970;2024-03-02T10:46:28;100229.34;;;9.37;56.21
80749;BME280;70145;53.746;9.970;2024-03-02T10:48:55;100231.78;;;9.40;55.83
80749;BME280;70145;53.746;9.970;2024-03-02T10:51:21;100234.91;;;9.45;55.94
80749;BME280;70145;53.746;9.970;2024-03-02T10:53:46;100231.81;;;9.49;55.23
80749;BME280;70145;53.746;9.970;2024-03-02T10:56:16;100245.28;;;9.49;55.03
80749;BME280;70145;53.746;9.970;2024-03-02T10:58:50;100236.06;;;9.52;54.80
80749;BME280;70145;53.746;9.970;2024-03-02T11:01:17;100237.63;;;9.54;54.66
80749;BME280;70145;53.746;9.970;2024-03-02T11:03:44;100245.31;;;9.59;54.80
80749;BME280;70145;53.746;9.970;2024-03-02T11:06:11;100242.94;;;9.65;54.38
80749;BME280;70145;53.746;9.970;2024-03-02T11:08:40;100239.81;;;9.70;54.56
80749;BME280;70145;53.746;9.970;2024-03-02T11:11:07;100250.28;;;9.73;54.15
80749;BME280;70145;53.746;9.970;2024-03-02T11:13:38;100243.69;;;9.77;54.52
80749;BME280;70145;53.746;9.970;2024-03-02T11:16:36;100243.09;;;9.83;54.40
80749;BME280;70145;53.746;9.970;2024-03-02T11:19:12;100238.19;;;9.88;54.43
80749;BME280;70145;53.746;9.970;2024-03-02T11:21:38;100245.72;;;9.94;54.62
80749;BME280;70145;53.746;9.970;2024-03-02T11:26:51;100245.44;;;9.97;54.09
80749;BME280;70145;53.746;9.970;2024-03-02T11:29:43;100254.19;;;9.99;53.94
80749;BME280;70145;53.746;9.970;2024-03-02T11:32:15;100256.47;;;10.04;53.64
80749;BME280;70145;53.746;9.970;2024-03-02T11:34:45;100256.94;;;10.09;54.01
80749;BME280;70145;53.746;9.970;2024-03-02T11:37:16;100263.72;;;10.13;53.90
80749;BME280;70145;53.746;9.970;2024-03-02T11:39:43;100256.53;;;10.13;53.38
80749;BME280;70145;53.746;9.970;2024-03-02T11:42:11;100259.91;;;10.15;53.41
80749;BME280;70145;53.746;9.970;2024-03-02T11:44:37;100265.28;;;10.15;52.68
80749;BME280;70145;53.746;9.970;2024-03-02T11:47:06;100264.72;;;10.21;52.82
80749;BME280;70145;53.746;9.970;2024-03-02T11:49:40;100262.78;;;10.23;52.82
80749;BME280;70145;53.746;9.970;2024-03-02T11:52:08;100262.78;;;10.23;52.30
80749;BME280;70145;53.746;9.970;2024-03-02T11:54:35;100259.81;;;10.26;52.72
80749;BME280;70145;53.746;9.970;2024-03-02T11:57:02;100258.53;;;10.30;52.71
80749;BME280;70145;53.746;9.970;2024-03-02T11:59:29;100258.94;;;10.35;52.80
80749;BME280;70145;53.746;9.970;2024-03-02T12:01:55;100256.69;;;10.40;52.88
80749;BME280;70145;53.746;9.970;2024-03-02T12:04:22;100256.56;;;10.42;52.81
80749;BME280;70145;53.746;9.970;2024-03-02T12:06:54;100258.84;;;10.46;52.35
80749;BME280;70145;53.746;9.970;2024-03-02T12:09:21;100260.56;;;10.47;52.22
80749;BME280;70145;53.746;9.970;2024-03-02T12:11:46;100256.56;;;10.51;52.17
80749;BME280;70145;53.746;9.970;2024-03-02T12:14:12;100266.09;;;10.55;52.53
80749;BME280;70145;53.746;9.970;2024-03-02T12:16:44;100256.56;;;10.51;51.70
80749;BME280;70145;53.746;9.970;2024-03-02T12:19:09;100257.16;;;10.55;52.25
80749;BME280;70145;53.746;9.970;2024-03-02T12:21:34;100255.06;;;10.58;51.75
80749;BME280;70145;53.746;9.970;2024-03-02T12:24:01;100247.53;;;10.62;51.95
80749;BME280;70145;53.746;9.970;2024-03-02T12:26:27;100247.94;;;10.57;50.93
80749;BME280;70145;53.746;9.970;2024-03-02T12:28:52;100240.16;;;10.64;51.49
80749;BME280;70145;53.746;9.970;2024-03-02T12:31:19;100235.31;;;10.67;51.65
80749;BME280;70145;53.746;9.970;2024-03-02T12:33:44;100229.50;;;10.72;51.81
80749;BME280;70145;53.746;9.970;2024-03-02T12:36:10;100231.09;;;10.74;51.57
80749;BME280;70145;53.746;9.970;2024-03-02T12:38:37;100233.47;;;10.77;51.62
80749;BME280;70145;53.746;9.970;2024-03-02T12:41:02;100239.56;;;10.79;51.49
80749;BME280;70145;53.746;9.970;2024-03-02T12:43:31;100234.78;;;10.83;51.27
80749;BME280;70145;53.746;9.970;2024-03-02T12:45:56;100231.66;;;10.87;51.87
80749;BME280;70145;53.746;9.970;2024-03-02T12:48:23;100231.31;;;10.90;51.31
80749;BME280;70145;53.746;9.970;2024-03-02T12:50:48;100230.06;;;10.94;51.30
80749;BME280;70145;53.746;9.970;2024-03-02T12:53:15;100228.78;;;10.98;51.49
80749;BME280;70145;53.746;9.970;2024-03-02T12:55:41;100238.28;;;11.02;51.38
80749;BME280;70145;53.746;9.970;2024-03-02T12:58:08;100232.19;;;11.00;51.27
80749;BME280;70145;53.746;9.970;2024-03-02T13:00:33;100234.28;;;11.06;51.23
80749;BME280;70145;53.746;9.970;2024-03-02T13:03:00;100233.03;;;11.10;51.33
80749;BME280;70145;53.746;9.970;2024-03-02T13:05:31;100227.78;;;11.09;50.98